LFBP 210400Z AUTO 03001KT 0800 0500 R31/0650D R13/0650D FG VV/// 00/00 Q1031 TEMPO 0300 FG

ElémentsDécodage
LFBP Station météo située sur l'aérodrome de PAU Pyrénées
210400Z émis le 21 du mois à 04h00 UTC
AUTO Bulletin édité par un automate
03001KT vent du 030°, 01 noeuds
0800 visibilité horizontale de 800 mètres
0500 visibilité horizontale de 500 mètres
R31/0650D portée visuelle de piste
piste 31, 650 mètres, en baisse
R13/0650D portée visuelle de piste
piste 13, 650 mètres, en baisse
FG brouillard
VV/// Visibilité verticale non disponible, le ciel n'est pas visible
00/00 température 00°C, point de rosée 00°C
 soit une humidité relative de 100%
Q1031 la pression au niveau de la mer (QNH) est de 1031 hPa
TEMPO fluctuation temporaire prévue
0300 visibilité horizontale de 300 mètres
FG brouillard